PWSweather.com
Personal Weather Stations
Station Observations

BunburyAU

Lat: -33.378333, Lon: 115.651667

Elevation: 95

Station Type: Fine Offset WH2081

http://www.sedgleymanor.com/wx/index.htm

Latest ConditionsUpdated 11:00:01 AM GMT+08:08 Friday, Dec 19, 2014
Currently Today's Max Today's Min Today's Average
Temperature 93.9°F34.4°C 93.9°F34.4°C 61.9°F16.6°C 72.7°F22.6°C
Dew Point 50.6°F10.3°C 54.4°F12.4°C 47.7°F8.7°C 51.1°F10.6°C
Winds 4.4 mph ENE7.1 kmh ENE 6.3 mph ENE10.1 kmh ENE - 4.0 mph 6.4 kmh
Wind Gusts 9.2 mph14.8 kmh 16.8 mph27.0 kmh - -
Humidity 23% 70% 23% 50%
Pressure 29.89 in1012.2 mb 29.95 in1014.2 mb 29.89 in1012.2 mb -
Hour Temp Dew Point Humidity Winds Wind Gusts Pressure Precip Precip Rate Daily Precip Total
11:00 AM 93.9°F34.4°C 50.6°F10.3°C 23% 4.4 mph ENE7.1 kmh ENE 9.2 mph14.8 kmh 29.89 in1012.2 mb 0.00 in0.0 mm 0.00 in/hr0.0 mm/hr 0.00 in0.0 mm
10:45 AM 93.2°F34.0°C 50.0°F10.0°C 23% 2.3 mph N3.7 kmh N 4.5 mph7.2 kmh 29.90 in1012.5 mb 0.00 in0.0 mm 0.00 in/hr0.0 mm/hr 0.00 in0.0 mm
10:30 AM 92.8°F33.8°C 50.8°F10.4°C 24% 5.7 mph ENE9.2 kmh ENE 12.1 mph19.5 kmh 29.90 in1012.5 mb 0.00 in0.0 mm 0.00 in/hr0.0 mm/hr 0.00 in0.0 mm
10:15 AM 91.6°F33.1°C 51.9°F11.1°C 26% 3.8 mph NE6.1 kmh NE 10.7 mph17.2 kmh 29.90 in1012.5 mb 0.00 in0.0 mm 0.00 in/hr0.0 mm/hr 0.00 in0.0 mm
10:00 AM 88.2°F31.2°C 50.0°F10.0°C 27% 5.3 mph NE8.5 kmh NE 11.4 mph18.3 kmh 29.90 in1012.5 mb 0.00 in0.0 mm 0.00 in/hr0.0 mm/hr 0.00 in0.0 mm
09:45 AM 88.9°F31.6°C 50.6°F10.3°C 27% 5.5 mph NE8.9 kmh NE 13.0 mph20.9 kmh 29.91 in1012.9 mb 0.00 in0.0 mm 0.00 in/hr0.0 mm/hr 0.00 in0.0 mm
09:30 AM 87.1°F30.6°C 50.1°F10.1°C 28% 4.6 mph NE7.4 kmh NE 12.1 mph19.5 kmh 29.92 in1013.2 mb 0.00 in0.0 mm 0.00 in/hr0.0 mm/hr 0.00 in0.0 mm
09:15 AM 86.4°F30.2°C 51.3°F10.7°C 30% 4.9 mph ESE7.9 kmh ESE 12.1 mph19.5 kmh 29.93 in1013.5 mb 0.00 in0.0 mm 0.00 in/hr0.0 mm/hr 0.00 in0.0 mm
09:00 AM 85.3°F29.6°C 51.3°F10.7°C 31% 5.5 mph NE8.9 kmh NE 10.7 mph17.2 kmh 29.92 in1013.2 mb 0.00 in0.0 mm 0.00 in/hr0.0 mm/hr 0.00 in0.0 mm
08:45 AM 84.2°F29.0°C 51.2°F10.7°C 32% 6.0 mph ENE9.7 kmh ENE 11.4 mph18.3 kmh 29.93 in1013.5 mb 0.00 in0.0 mm 0.00 in/hr0.0 mm/hr 0.00 in0.0 mm
08:30 AM 82.8°F28.2°C 50.8°F10.4°C 33% 6.3 mph ENE10.1 kmh ENE 10.7 mph17.2 kmh 29.93 in1013.5 mb 0.00 in0.0 mm 0.00 in/hr0.0 mm/hr 0.00 in0.0 mm
08:15 AM 82.0°F27.8°C 49.3°F9.6°C 32% 5.7 mph NE9.2 kmh NE 13.0 mph20.9 kmh 29.94 in1013.9 mb 0.00 in0.0 mm 0.00 in/hr0.0 mm/hr 0.00 in0.0 mm
08:00 AM 81.7°F27.6°C 49.8°F9.9°C 33% 6.0 mph ENE9.7 kmh ENE 16.8 mph27.0 kmh 29.94 in1013.9 mb 0.00 in0.0 mm 0.00 in/hr0.0 mm/hr 0.00 in0.0 mm
07:45 AM 82.4°F28.0°C 52.0°F11.1°C 35% 4.0 mph E6.4 kmh E 9.8 mph15.8 kmh 29.94 in1013.9 mb 0.00 in0.0 mm 0.00 in/hr0.0 mm/hr 0.00 in0.0 mm
07:30 AM 79.3°F26.3°C 50.1°F10.1°C 36% 3.9 mph E6.3 kmh E 7.6 mph12.2 kmh 29.95 in1014.2 mb 0.00 in0.0 mm 0.00 in/hr0.0 mm/hr 0.00 in0.0 mm
07:15 AM 77.5°F25.3°C 50.0°F10.0°C 38% 5.0 mph E8.0 kmh E 9.8 mph15.8 kmh 29.95 in1014.2 mb 0.00 in0.0 mm 0.00 in/hr0.0 mm/hr 0.00 in0.0 mm
07:00 AM 76.1°F24.5°C 49.4°F9.7°C 39% 4.3 mph E6.9 kmh E 9.2 mph14.8 kmh 29.95 in1014.2 mb 0.00 in0.0 mm 0.00 in/hr0.0 mm/hr 0.00 in0.0 mm
06:45 AM 75.9°F24.4°C 49.9°F9.9°C 40% 2.8 mph E4.5 kmh E 9.2 mph14.8 kmh 29.95 in1014.2 mb 0.00 in0.0 mm 0.00 in/hr0.0 mm/hr 0.00 in0.0 mm
06:30 AM 74.3°F23.5°C 50.4°F10.2°C 43% 1.9 mph SE3.1 kmh SE 5.4 mph8.7 kmh 29.95 in1014.2 mb 0.00 in0.0 mm 0.00 in/hr0.0 mm/hr 0.00 in0.0 mm
06:15 AM 70.9°F21.6°C 49.1°F9.5°C 46% 2.2 mph SE3.5 kmh SE 5.4 mph8.7 kmh 29.95 in1014.2 mb 0.00 in0.0 mm 0.00 in/hr0.0 mm/hr 0.00 in0.0 mm
06:00 AM 70.0°F21.1°C 47.7°F8.7°C 45% 1.6 mph SE2.6 kmh SE 4.5 mph7.2 kmh 29.95 in1014.2 mb 0.00 in0.0 mm 0.00 in/hr0.0 mm/hr 0.00 in0.0 mm
05:45 AM 67.6°F19.8°C 49.4°F9.7°C 52% 2.0 mph SSE3.2 kmh SSE 4.5 mph7.2 kmh 29.95 in1014.2 mb 0.00 in0.0 mm 0.00 in/hr0.0 mm/hr 0.00 in0.0 mm
05:30 AM 64.8°F18.2°C 49.7°F9.8°C 58% 1.8 mph S2.9 kmh S 6.0 mph9.7 kmh 29.95 in1014.2 mb 0.00 in0.0 mm 0.00 in/hr0.0 mm/hr 0.00 in0.0 mm
05:15 AM 61.9°F16.6°C 48.7°F9.3°C 62% 3.5 mph SE5.6 kmh SE 8.3 mph13.4 kmh 29.94 in1013.9 mb 0.00 in0.0 mm 0.00 in/hr0.0 mm/hr 0.00 in0.0 mm
05:00 AM 61.9°F16.6°C 48.7°F9.3°C 62% 3.4 mph SE5.5 kmh SE 8.3 mph13.4 kmh 29.94 in1013.9 mb 0.00 in0.0 mm 0.00 in/hr0.0 mm/hr 0.00 in0.0 mm
04:45 AM 61.9°F16.6°C 49.2°F9.6°C 63% 3.4 mph E5.5 kmh E 7.6 mph12.2 kmh 29.94 in1013.9 mb 0.00 in0.0 mm 0.00 in/hr0.0 mm/hr 0.00 in0.0 mm
04:30 AM 61.9°F16.6°C 49.2°F9.6°C 63% 3.5 mph SE5.6 kmh SE 7.6 mph12.2 kmh 29.94 in1013.9 mb 0.00 in0.0 mm 0.00 in/hr0.0 mm/hr 0.00 in0.0 mm
04:15 AM 62.1°F16.7°C 49.8°F9.9°C 64% 4.1 mph SE6.6 kmh SE 9.2 mph14.8 kmh 29.93 in1013.5 mb 0.00 in0.0 mm 0.00 in/hr0.0 mm/hr 0.00 in0.0 mm
04:00 AM 62.1°F16.7°C 50.2°F10.1°C 65% 3.7 mph E6.0 kmh E 6.9 mph11.1 kmh 29.93 in1013.5 mb 0.00 in0.0 mm 0.00 in/hr0.0 mm/hr 0.00 in0.0 mm
03:45 AM 62.2°F16.8°C 50.8°F10.4°C 66% 4.0 mph E6.4 kmh E 8.3 mph13.4 kmh 29.93 in1013.5 mb 0.00 in0.0 mm 0.00 in/hr0.0 mm/hr 0.00 in0.0 mm
03:30 AM 62.2°F16.8°C 51.2°F10.7°C 67% 3.8 mph E6.1 kmh E 8.3 mph13.4 kmh 29.92 in1013.2 mb 0.00 in0.0 mm 0.00 in/hr0.0 mm/hr 0.00 in0.0 mm
03:15 AM 62.2°F16.8°C 52.0°F11.1°C 69% 4.3 mph SE6.9 kmh SE 7.6 mph12.2 kmh 29.92 in1013.2 mb 0.00 in0.0 mm 0.00 in/hr0.0 mm/hr 0.00 in0.0 mm
03:00 AM 62.8°F17.1°C 51.7°F10.9°C 67% 3.5 mph SE5.6 kmh SE 9.2 mph14.8 kmh 29.92 in1013.2 mb 0.00 in0.0 mm 0.00 in/hr0.0 mm/hr 0.00 in0.0 mm
02:45 AM 63.5°F17.5°C 52.0°F11.1°C 66% 3.9 mph ESE6.3 kmh ESE 8.3 mph13.4 kmh 29.93 in1013.5 mb 0.00 in0.0 mm 0.00 in/hr0.0 mm/hr 0.00 in0.0 mm
02:30 AM 63.9°F17.7°C 52.3°F11.3°C 66% 3.7 mph ESE6.0 kmh ESE 9.2 mph14.8 kmh 29.92 in1013.2 mb 0.00 in0.0 mm 0.00 in/hr0.0 mm/hr 0.00 in0.0 mm
02:15 AM 64.4°F18.0°C 52.4°F11.3°C 65% 5.1 mph ESE8.2 kmh ESE 11.4 mph18.3 kmh 29.92 in1013.2 mb 0.00 in0.0 mm 0.00 in/hr0.0 mm/hr 0.00 in0.0 mm
02:00 AM 64.6°F18.1°C 53.0°F11.7°C 66% 5.2 mph ESE8.4 kmh ESE 10.7 mph17.2 kmh 29.92 in1013.2 mb 0.00 in0.0 mm 0.00 in/hr0.0 mm/hr 0.00 in0.0 mm
01:45 AM 64.8°F18.2°C 53.6°F12.0°C 67% 5.2 mph SE8.4 kmh SE 15.9 mph25.6 kmh 29.92 in1013.2 mb 0.00 in0.0 mm 0.00 in/hr0.0 mm/hr 0.00 in0.0 mm
01:30 AM 64.8°F18.2°C 53.6°F12.0°C 67% 4.3 mph E6.9 kmh E 8.3 mph13.4 kmh 29.92 in1013.2 mb 0.00 in0.0 mm 0.00 in/hr0.0 mm/hr 0.00 in0.0 mm
01:15 AM 64.8°F18.2°C 54.0°F12.2°C 68% 4.2 mph E6.8 kmh E 10.7 mph17.2 kmh 29.93 in1013.5 mb 0.00 in0.0 mm 0.00 in/hr0.0 mm/hr 0.00 in0.0 mm
01:00 AM 64.8°F18.2°C 54.0°F12.2°C 68% 4.1 mph SE6.6 kmh SE 9.2 mph14.8 kmh 29.93 in1013.5 mb 0.00 in0.0 mm 0.00 in/hr0.0 mm/hr 0.00 in0.0 mm
12:45 AM 64.8°F18.2°C 54.0°F12.2°C 68% 3.8 mph ESE6.1 kmh ESE 7.6 mph12.2 kmh 29.94 in1013.9 mb 0.00 in0.0 mm 0.00 in/hr0.0 mm/hr 0.00 in0.0 mm
12:30 AM 64.8°F18.2°C 54.4°F12.4°C 69% 3.2 mph ESE5.1 kmh ESE 9.2 mph14.8 kmh 29.94 in1013.9 mb 0.00 in0.0 mm 0.00 in/hr0.0 mm/hr 0.00 in0.0 mm
12:15 AM 64.2°F17.9°C 54.2°F12.3°C 70% 2.3 mph SE3.7 kmh SE 5.4 mph8.7 kmh 29.95 in1014.2 mb 0.00 in0.0 mm 0.00 in/hr0.0 mm/hr 0.00 in0.0 mm
12:00 AM 64.2°F17.9°C 54.2°F12.3°C 70% 2.1 mph SSE3.4 kmh SSE 7.6 mph12.2 kmh 29.95 in1014.2 mb 0.00 in0.0 mm 0.00 in/hr0.0 mm/hr 0.00 in0.0 mm